Time;durP1;ratioP1;P1;durP2;ratioP2;P2;SDS_P1;SDS_P2;PMS_P1;PMS_P2;Temp;Humidity;BMP_temperature;BMP_pressure;BME280_temperature;BME280_humidity;BME280_pressure;Samples;Min_cycle;Max_cycle;Signal;HPM_P1;HPM_P2
2024/01/19 00:02:23;;;;;;;7.07;5.80;;;;;;;-1.97;100.00;101406.31;5110626;28;20460;-38
2024/01/19 00:04:48;;;;;;;8.63;6.13;;;;;;;-1.98;100.00;101407.31;5109623;28;20787;-38
2024/01/19 00:07:14;;;;;;;7.77;5.67;;;;;;;-1.99;100.00;101413.59;5101577;28;20260;-38
2024/01/19 00:09:39;;;;;;;7.57;4.78;;;;;;;-1.99;100.00;101410.94;5096580;28;20031;-38
2024/01/19 00:12:05;;;;;;;7.70;5.60;;;;;;;-2.00;100.00;101406.63;5096373;28;20107;-38
2024/01/19 00:14:30;;;;;;;14.45;7.32;;;;;;;-2.01;100.00;101409.38;5096191;28;20053;-38
2024/01/19 00:16:56;;;;;;;18.53;8.77;;;;;;;-2.15;100.00;101394.69;5095962;28;20073;-38
2024/01/19 00:19:21;;;;;;;13.00;7.43;;;;;;;-2.16;100.00;101400.97;5096374;28;20034;-38
2024/01/19 00:21:46;;;;;;;12.93;7.20;;;;;;;-2.20;100.00;101391.59;5096711;28;20372;-38
2024/01/19 00:24:13;;;;;;;19.00;9.43;;;;;;;-2.22;100.00;101399.69;5096088;28;20065;-38
2024/01/19 00:26:39;;;;;;;25.80;12.30;;;;;;;-2.20;100.00;101407.50;5096807;28;20277;-38
2024/01/19 00:29:05;;;;;;;19.38;10.63;;;;;;;-2.12;100.00;101426.22;5095758;28;20021;-38
2024/01/19 00:31:31;;;;;;;14.32;7.80;;;;;;;-2.14;100.00;101425.53;5096220;28;20077;-38
2024/01/19 00:33:56;;;;;;;11.75;7.00;;;;;;;-2.16;100.00;101425.66;5095860;28;20424;-38
2024/01/19 00:36:22;;;;;;;11.17;6.87;;;;;;;-2.34;100.00;101414.03;5095777;28;20115;-38
2024/01/19 00:38:47;;;;;;;8.02;5.82;;;;;;;-2.28;100.00;101417.94;5095747;28;20020;-38
2024/01/19 00:41:13;;;;;;;8.33;5.77;;;;;;;-2.21;100.00;101434.97;5096082;28;20032;-38
2024/01/19 00:43:38;;;;;;;7.80;5.10;;;;;;;-2.29;100.00;101434.78;5096191;28;20395;-38
2024/01/19 00:46:04;;;;;;;6.80;4.57;;;;;;;-2.18;100.00;101445.31;5095005;28;20331;-38
2024/01/19 00:48:29;;;;;;;6.67;4.33;;;;;;;-2.19;100.00;101457.72;5095256;28;20020;-38
2024/01/19 00:50:54;;;;;;;7.07;4.40;;;;;;;-2.18;100.00;101458.56;5095906;28;20333;-38
2024/01/19 00:53:20;;;;;;;6.93;4.73;;;;;;;-2.13;100.00;101464.31;5095060;28;20423;-38
2024/01/19 00:55:45;;;;;;;7.30;4.27;;;;;;;-2.12;100.00;101460.69;5095594;28;20154;-38
2024/01/19 00:58:11;;;;;;;9.37;4.97;;;;;;;-2.19;100.00;101459.56;5095445;28;20032;-38
2024/01/19 01:00:36;;;;;;;6.07;4.50;;;;;;;-2.18;100.00;101443.50;5095491;28;20016;-38
2024/01/19 01:03:01;;;;;;;7.67;4.77;;;;;;;-2.14;100.00;101458.19;5096159;28;20356;-38
2024/01/19 01:05:27;;;;;;;5.97;4.00;;;;;;;-2.00;100.00;101469.34;5095245;28;20032;-38
2024/01/19 01:07:52;;;;;;;6.27;3.90;;;;;;;-1.97;100.00;101455.84;5095600;28;20309;-38
2024/01/19 01:10:18;;;;;;;7.07;4.33;;;;;;;-2.02;100.00;101443.00;5094928;28;20028;-38
2024/01/19 01:12:43;;;;;;;6.43;3.70;;;;;;;-1.98;100.00;101425.84;5095718;28;20448;-38
2024/01/19 01:15:09;;;;;;;6.63;4.00;;;;;;;-1.93;100.00;101442.19;5095492;28;20032;-38
2024/01/19 01:17:34;;;;;;;5.65;4.47;;;;;;;-1.91;100.00;101458.78;5095449;28;20063;-38
2024/01/19 01:19:59;;;;;;;6.80;4.30;;;;;;;-1.90;100.00;101479.06;5094722;28;20388;-38
2024/01/19 01:22:26;;;;;;;7.10;4.03;;;;;;;-1.89;100.00;101466.63;5095266;28;20035;-38
2024/01/19 01:24:52;;;;;;;7.75;4.05;;;;;;;-1.85;100.00;101468.88;5094852;28;20111;-38
2024/01/19 01:27:17;;;;;;;5.55;3.80;;;;;;;-1.82;100.00;101463.28;5095431;28;20059;-38
2024/01/19 01:29:42;;;;;;;6.87;3.97;;;;;;;-1.78;100.00;101452.41;5094835;28;20031;-38
2024/01/19 01:32:08;;;;;;;4.77;3.33;;;;;;;-1.74;100.00;101456.47;5095074;28;20381;-38
2024/01/19 01:34:33;;;;;;;5.97;3.37;;;;;;;-1.80;100.00;101449.91;5094626;28;20475;-38
2024/01/19 01:36:59;;;;;;;5.23;3.80;;;;;;;-1.81;100.00;101466.78;5095237;28;20548;-38
2024/01/19 01:39:25;;;;;;;4.50;3.58;;;;;;;-1.80;100.00;101465.81;5094554;28;20054;-38
2024/01/19 01:41:50;;;;;;;4.93;3.30;;;;;;;-1.87;100.00;101454.06;5094831;28;20020;-38
2024/01/19 01:44:16;;;;;;;6.57;3.70;;;;;;;-1.97;100.00;101467.28;5094251;28;20059;-38
2024/01/19 01:46:42;;;;;;;4.13;3.60;;;;;;;-2.01;100.00;101471.19;5094973;28;20020;-38
2024/01/19 01:49:07;;;;;;;5.60;3.75;;;;;;;-2.12;100.00;101463.34;5094401;28;20024;-38
2024/01/19 01:51:33;;;;;;;6.45;3.50;;;;;;;-2.17;100.00;101463.72;5094730;28;20111;-38
2024/01/19 01:53:58;;;;;;;5.93;3.87;;;;;;;-2.23;100.00;101472.22;5094298;28;20019;-38
2024/01/19 01:56:25;;;;;;;4.80;3.58;;;;;;;-2.25;100.00;101470.66;5095050;28;20298;-38
2024/01/19 01:58:51;;;;;;;5.93;3.63;;;;;;;-2.24;100.00;101477.66;5094206;28;20023;-38
2024/01/19 02:01:16;;;;;;;5.45;3.88;;;;;;;-2.23;100.00;101490.75;5094240;28;20024;-38
2024/01/19 02:03:42;;;;;;;7.07;4.23;;;;;;;-2.23;100.00;101484.63;5093959;28;20098;-38
2024/01/19 02:06:07;;;;;;;6.97;3.65;;;;;;;-2.32;100.00;101488.91;5093914;28;20081;-38
2024/01/19 02:08:32;;;;;;;6.60;3.63;;;;;;;-2.37;100.00;101493.75;5094037;28;20032;-38
2024/01/19 02:10:58;;;;;;;5.33;3.30;;;;;;;-2.43;100.00;101497.78;5094446;28;20047;-38
2024/01/19 02:13:23;;;;;;;5.97;3.07;;;;;;;-2.41;100.00;101503.75;5094469;28;20035;-38
2024/01/19 02:15:48;;;;;;;7.60;3.67;;;;;;;-2.44;100.00;101512.00;5093938;28;20061;-38
2024/01/19 02:18:14;;;;;;;5.70;3.80;;;;;;;-2.44;100.00;101506.69;5094001;28;20028;-38
2024/01/19 02:20:39;;;;;;;4.67;3.40;;;;;;;-2.46;100.00;101515.72;5094473;28;20025;-38
2024/01/19 02:23:11;;;;;;;7.53;3.50;;;;;;;-2.43;100.00;101526.91;5093683;28;20081;-38
2024/01/19 02:25:36;;;;;;;5.88;3.35;;;;;;;-2.49;100.00;101519.50;5094123;28;20028;-38
2024/01/19 02:28:03;;;;;;;6.15;3.47;;;;;;;-2.51;100.00;101518.75;5094340;28;20031;-38
2024/01/19 02:30:29;;;;;;;4.95;3.72;;;;;;;-2.77;100.00;101497.13;5094032;28;20024;-38
2024/01/19 02:32:55;;;;;;;4.72;3.90;;;;;;;-2.58;100.00;101519.41;5093681;28;20384;-38
2024/01/19 02:35:20;;;;;;;5.50;3.67;;;;;;;-2.66;100.00;101515.59;5093874;28;20032;-38
2024/01/19 02:37:45;;;;;;;5.20;3.30;;;;;;;-2.58;100.00;101527.38;5093449;28;20055;-38
2024/01/19 02:40:11;;;;;;;8.97;3.67;;;;;;;-2.66;100.00;101530.63;5093519;28;20031;-38
2024/01/19 02:42:36;;;;;;;6.50;3.55;;;;;;;-2.75;100.00;101524.31;5093557;28;20028;-38
2024/01/19 02:45:02;;;;;;;9.20;3.47;;;;;;;-2.75;100.00;101523.47;5093495;28;20064;-38
2024/01/19 02:47:28;;;;;;;8.10;3.93;;;;;;;-2.66;100.00;101539.41;5093353;28;20020;-38
2024/01/19 02:49:53;;;;;;;7.10;3.58;;;;;;;-2.63;100.00;101551.59;5093988;28;20273;-38
2024/01/19 02:52:18;;;;;;;5.75;3.13;;;;;;;-2.58;100.00;101549.38;5093532;28;20492;-38
2024/01/19 02:54:44;;;;;;;5.27;3.20;;;;;;;-2.66;100.00;101550.00;5093119;28;20048;-38
2024/01/19 02:57:09;;;;;;;4.93;2.80;;;;;;;-2.63;100.00;101560.38;5093531;28;20036;-38
2024/01/19 02:59:35;;;;;;;6.50;3.08;;;;;;;-2.63;100.00;101556.88;5093094;28;20111;-38
2024/01/19 03:02:00;;;;;;;6.43;2.87;;;;;;;-2.69;100.00;101549.41;5093877;28;20028;-38
2024/01/19 03:04:25;;;;;;;4.73;2.80;;;;;;;-2.60;100.00;101559.25;5093629;28;20034;-38
2024/01/19 03:06:51;;;;;;;4.03;2.70;;;;;;;-2.58;100.00;101559.97;5093124;28;20111;-38
2024/01/19 03:09:16;;;;;;;8.73;3.05;;;;;;;-2.69;100.00;101541.47;5093273;28;20488;-38
2024/01/19 03:11:42;;;;;;;5.33;3.10;;;;;;;-2.65;100.00;101548.19;5093406;28;20032;-38
2024/01/19 03:14:09;;;;;;;4.20;2.85;;;;;;;-2.60;100.00;101557.44;5092867;28;20487;-38
2024/01/19 03:16:39;;;;;;;5.63;2.87;;;;;;;-2.60;100.00;101546.84;5093183;28;20020;-38
2024/01/19 03:19:05;;;;;;;6.07;3.28;;;;;;;-2.52;100.00;101563.91;5093737;28;20028;-38
2024/01/19 03:21:30;;;;;;;4.47;2.93;;;;;;;-2.57;100.00;101556.34;5093774;28;20035;-38
2024/01/19 03:23:55;;;;;;;5.30;3.17;;;;;;;-2.45;100.00;101570.38;5093170;28;20020;-38
2024/01/19 03:26:21;;;;;;;6.00;3.77;;;;;;;-2.46;100.00;101569.53;5092897;28;20024;-38
2024/01/19 03:28:46;;;;;;;6.33;3.47;;;;;;;-2.42;100.00;101570.97;5093074;28;20031;-38
2024/01/19 03:31:11;;;;;;;6.17;3.70;;;;;;;-2.43;100.00;101571.94;5093919;28;20294;-38
2024/01/19 03:33:37;;;;;;;4.87;3.40;;;;;;;-2.38;100.00;101571.56;5092871;28;20043;-38
2024/01/19 03:36:02;;;;;;;8.37;3.70;;;;;;;-2.42;100.00;101562.19;5093042;28;20378;-38
2024/01/19 03:38:29;;;;;;;4.68;3.63;;;;;;;-2.36;100.00;101567.78;5093465;28;20055;-38
2024/01/19 03:40:54;;;;;;;5.35;4.03;;;;;;;-2.35;100.00;101561.50;5094083;28;20024;-38
2024/01/19 03:43:19;;;;;;;6.00;4.13;;;;;;;-2.30;100.00;101570.88;5097070;28;20030;-38
2024/01/19 03:45:45;;;;;;;7.10;5.03;;;;;;;-2.27;100.00;101574.13;5097413;28;20103;-38
2024/01/19 03:48:10;;;;;;;6.63;4.33;;;;;;;-2.32;100.00;101555.13;5096814;28;20441;-38
2024/01/19 03:50:36;;;;;;;6.93;4.03;;;;;;;-2.21;100.00;101576.25;5096751;28;20445;-38
2024/01/19 03:53:01;;;;;;;7.10;5.07;;;;;;;-2.27;100.00;101568.00;5097559;28;20024;-38
2024/01/19 03:55:27;;;;;;;9.33;4.73;;;;;;;-2.24;100.00;101570.38;5096609;28;20044;-38
2024/01/19 03:57:52;;;;;;;6.63;5.10;;;;;;;-2.25;100.00;101566.88;5096283;28;20285;-38
2024/01/19 04:00:18;;;;;;;5.20;4.43;;;;;;;-2.18;100.00;101580.47;5096150;28;20073;-38
2024/01/19 04:02:43;;;;;;;8.05;4.85;;;;;;;-2.23;100.00;101572.06;5096160;28;20046;-38
2024/01/19 04:05:08;;;;;;;7.43;5.07;;;;;;;-2.21;100.00;101575.41;5096096;28;20046;-38
2024/01/19 04:07:33;;;;;;;7.97;5.80;;;;;;;-2.23;100.00;101580.00;5096061;28;20107;-38
2024/01/19 04:09:59;;;;;;;8.37;5.57;;;;;;;-2.23;100.00;101577.38;5096821;28;20055;-38
2024/01/19 04:12:24;;;;;;;6.23;5.27;;;;;;;-2.20;100.00;101583.22;5096673;28;20031;-38
2024/01/19 04:14:50;;;;;;;9.73;5.50;;;;;;;-2.19;100.00;101586.72;5095890;28;20468;-38
2024/01/19 04:17:15;;;;;;;8.43;5.60;;;;;;;-2.24;100.00;101573.03;5096268;28;20115;-38
2024/01/19 04:19:40;;;;;;;9.57;5.30;;;;;;;-2.20;100.00;101590.34;5096213;28;20035;-38
2024/01/19 04:22:06;;;;;;;8.20;5.37;;;;;;;-2.20;100.00;101596.47;5096162;28;20020;-38
2024/01/19 04:24:31;;;;;;;8.83;5.40;;;;;;;-2.20;100.00;101596.47;5095706;28;20066;-38
2024/01/19 04:26:57;;;;;;;8.30;5.70;;;;;;;-2.22;100.00;101601.06;5096063;28;20270;-38
2024/01/19 04:29:22;;;;;;;8.55;5.88;;;;;;;-2.18;100.00;101601.66;5095937;28;20036;-38
2024/01/19 04:31:48;;;;;;;9.23;6.28;;;;;;;-2.18;100.00;101599.00;5095750;28;20460;-38
2024/01/19 04:34:13;;;;;;;10.48;6.20;;;;;;;-2.18;100.00;101602.50;5096490;28;20023;-38
2024/01/19 04:36:39;;;;;;;10.20;5.65;;;;;;;-2.18;100.00;101607.78;5096243;28;20020;-38
2024/01/19 04:39:04;;;;;;;10.03;5.87;;;;;;;-2.25;100.00;101597.81;5096110;28;20020;-38
2024/01/19 04:41:30;;;;;;;10.43;5.63;;;;;;;-2.16;100.00;101629.69;5096664;28;20085;-38
2024/01/19 04:43:56;;;;;;;7.95;5.57;;;;;;;-2.21;100.00;101616.00;5095711;28;20028;-38
2024/01/19 04:46:21;;;;;;;10.53;5.73;;;;;;;-2.16;100.00;101626.19;5095761;28;20032;-38
2024/01/19 04:48:46;;;;;;;9.07;5.67;;;;;;;-2.24;100.00;101618.91;5095636;28;20046;-38
2024/01/19 04:51:12;;;;;;;8.77;5.10;;;;;;;-2.16;100.00;101632.34;5096109;28;20120;-39
2024/01/19 04:53:37;;;;;;;8.37;5.57;;;;;;;-2.19;100.00;101639.72;5095116;28;20020;-38
2024/01/19 04:56:06;;;;;;;8.80;5.47;;;;;;;-2.22;100.00;101632.88;5095245;28;20048;-38
2024/01/19 04:58:37;;;;;;;8.02;5.55;;;;;;;-2.31;100.00;101623.03;5095728;28;20036;-38
2024/01/19 05:01:03;;;;;;;9.15;5.15;;;;;;;-2.24;100.00;101637.47;5095653;28;20073;-38
2024/01/19 05:03:29;;;;;;;;;;;;;;;-2.23;100.00;101638.31;5095720;28;20062;-38
2024/01/19 05:05:54;;;;;;;8.57;5.20;;;;;;;-2.28;100.00;101632.56;5095289;28;19920;-38
2024/01/19 05:08:20;;;;;;;9.33;5.80;;;;;;;-2.28;100.00;101629.91;5095540;28;20032;-38
2024/01/19 05:10:45;;;;;;;6.57;5.00;;;;;;;-2.27;100.00;101639.53;5094885;28;20400;-38
2024/01/19 05:13:10;;;;;;;9.43;5.77;;;;;;;-2.33;100.00;101627.63;5095354;28;20274;-38
2024/01/19 05:15:36;;;;;;;8.43;5.40;;;;;;;-2.32;100.00;101645.19;5095567;28;20147;-38
2024/01/19 05:18:02;;;;;;;8.23;5.65;;;;;;;-2.31;100.00;101654.81;5095859;28;20039;-38
2024/01/19 05:20:28;;;;;;;11.95;6.57;;;;;;;-2.29;100.00;101662.63;5094420;28;20369;-38
2024/01/19 05:22:54;;;;;;;;;;;;;;;-2.27;100.00;101666.00;5095328;28;20020;-38
2024/01/19 05:25:20;;;;;;;9.63;5.65;;;;;;;-2.29;100.00;101665.28;5094792;28;19923;-38
2024/01/19 05:27:47;;;;;;;10.60;6.07;;;;;;;-2.49;100.00;101643.09;5094798;28;20461;-38
2024/01/19 05:30:13;;;;;;;8.63;5.60;;;;;;;-2.31;100.00;101676.03;5095015;28;20032;-38
2024/01/19 05:32:39;;;;;;;10.35;5.57;;;;;;;-2.30;100.00;101679.50;5094681;28;20032;-38
2024/01/19 05:35:05;;;;;;;8.77;5.53;;;;;;;-2.36;100.00;101681.69;5094565;28;20031;-38
2024/01/19 05:37:30;;;;;;;8.43;5.45;;;;;;;-2.37;100.00;101679.19;5094864;28;20020;-38
2024/01/19 05:39:55;;;;;;;8.80;5.57;;;;;;;-2.36;100.00;101686.16;5094545;28;20059;-38
2024/01/19 05:42:21;;;;;;;10.77;6.40;;;;;;;-2.35;100.00;101687.84;5094864;28;20115;-38
2024/01/19 05:44:47;;;;;;;12.45;5.80;;;;;;;-2.25;100.00;101717.91;5094485;28;20024;-38
2024/01/19 05:47:12;;;;;;;11.30;5.77;;;;;;;-2.42;100.00;101695.44;5095009;28;20173;-38
2024/01/19 05:49:40;;;;;;;9.67;5.67;;;;;;;-2.27;100.00;101724.31;5094732;28;20039;-38
2024/01/19 05:52:05;;;;;;;11.10;5.68;;;;;;;-2.17;100.00;101741.13;5094900;28;20114;-38
2024/01/19 05:54:33;;;;;;;8.60;5.97;;;;;;;-2.13;100.00;101753.16;5094524;28;20115;-38
2024/01/19 05:56:59;;;;;;;7.85;5.25;;;;;;;-2.12;100.00;101768.09;5094373;28;20134;-38
2024/01/19 05:59:24;;;;;;;12.95;6.53;;;;;;;-2.11;100.00;101764.47;5093862;28;20120;-38
2024/01/19 06:01:49;;;;;;;10.53;5.83;;;;;;;-2.21;100.00;101747.63;5094322;28;20031;-38
2024/01/19 06:04:15;;;;;;;8.20;5.30;;;;;;;-2.06;100.00;101770.22;5093021;28;20058;-38
2024/01/19 06:06:40;;;;;;;10.90;6.30;;;;;;;-2.08;100.00;101758.94;5093505;28;20085;-38
2024/01/19 06:09:07;;;;;;;9.57;5.90;;;;;;;-1.99;100.00;101771.41;5093711;28;20036;-38
2024/01/19 06:11:32;;;;;;;12.43;6.45;;;;;;;-2.00;100.00;101769.75;5093332;28;20020;-38
2024/01/19 06:13:58;;;;;;;9.40;5.80;;;;;;;-2.00;100.00;101767.09;5093534;28;20028;-38
2024/01/19 06:16:23;;;;;;;8.93;5.90;;;;;;;-1.95;100.00;101787.88;5093539;28;20024;-39
2024/01/19 06:18:48;;;;;;;9.43;5.40;;;;;;;-1.99;100.00;101779.38;5093470;28;20081;-39
2024/01/19 06:21:14;;;;;;;9.27;5.63;;;;;;;-1.93;100.00;101792.13;5093586;28;20106;-39
2024/01/19 06:23:39;;;;;;;8.63;5.30;;;;;;;-1.89;100.00;101796.19;5093218;28;20031;-39
2024/01/19 06:26:10;;;;;;;10.53;5.77;;;;;;;-1.93;100.00;101789.47;5093747;28;20032;-39
2024/01/19 06:28:35;;;;;;;7.78;6.22;;;;;;;-1.92;100.00;101798.25;5093354;28;20028;-39
2024/01/19 06:31:03;;;;;;;8.77;5.63;;;;;;;-1.95;100.00;101798.50;5092891;28;20040;-39
2024/01/19 06:33:29;;;;;;;8.13;5.57;;;;;;;-2.00;100.00;101798.91;5093289;28;20032;-39
2024/01/19 06:35:54;;;;;;;7.10;5.30;;;;;;;-2.06;100.00;101799.38;5093155;28;20518;-39
2024/01/19 06:38:20;;;;;;;9.03;5.70;;;;;;;-2.06;100.00;101802.03;5093370;28;20193;-39
2024/01/19 06:40:46;;;;;;;8.30;5.72;;;;;;;-2.09;100.00;101812.91;5094422;28;20449;-39
2024/01/19 06:43:11;;;;;;;10.60;5.60;;;;;;;-2.13;100.00;101811.47;5094031;28;20051;-39
2024/01/19 06:45:37;;;;;;;11.05;6.15;;;;;;;-2.18;100.00;101809.19;5093217;28;20498;-39
2024/01/19 06:48:03;;;;;;;8.87;5.77;;;;;;;-2.20;100.00;101815.56;5094342;28;20032;-39
2024/01/19 06:50:28;;;;;;;8.40;5.63;;;;;;;-2.24;100.00;101816.81;5093168;28;20084;-39
2024/01/19 06:52:53;;;;;;;9.40;5.70;;;;;;;-2.29;100.00;101808.34;5093784;28;20028;-39
2024/01/19 06:55:19;;;;;;;8.23;5.80;;;;;;;-2.40;100.00;101810.06;5093202;28;20452;-38
2024/01/19 06:57:44;;;;;;;8.17;5.50;;;;;;;-2.34;100.00;101822.84;5093735;28;20323;-39
2024/01/19 07:00:10;;;;;;;9.30;5.40;;;;;;;-2.34;100.00;101820.19;5093953;28;20024;-39
2024/01/19 07:02:35;;;;;;;9.95;6.03;;;;;;;-2.43;100.00;101820.09;5093422;28;20101;-39
2024/01/19 07:05:00;;;;;;;7.50;5.53;;;;;;;-2.38;100.00;101834.63;5093259;28;20028;-38
2024/01/19 07:07:26;;;;;;;9.37;5.60;;;;;;;-2.53;100.00;101822.63;5093851;28;20024;-39
2024/01/19 07:09:51;;;;;;;8.67;5.73;;;;;;;-2.50;100.00;101835.59;5093262;28;20073;-39
2024/01/19 07:12:18;;;;;;;9.83;6.40;;;;;;;-2.46;100.00;101854.75;5093297;28;20262;-39
2024/01/19 07:14:44;;;;;;;9.73;6.15;;;;;;;-2.48;100.00;101867.28;5093065;28;20032;-38
2024/01/19 07:17:09;;;;;;;9.83;6.23;;;;;;;-2.50;100.00;101870.03;5095394;28;20111;-38
2024/01/19 07:19:35;;;;;;;7.63;5.70;;;;;;;-2.66;100.00;101854.50;5097499;28;20306;-38
2024/01/19 07:22:00;;;;;;;9.93;5.22;;;;;;;-2.52;100.00;101877.28;5097042;28;20031;-39
2024/01/19 07:24:26;;;;;;;11.23;6.27;;;;;;;-2.54;100.00;101868.59;5097146;28;20043;-39
2024/01/19 07:26:51;;;;;;;9.13;5.95;;;;;;;-2.54;100.00;101868.59;5097930;28;20047;-39
2024/01/19 07:29:18;;;;;;;9.70;6.07;;;;;;;-2.56;100.00;101873.19;5096908;28;20047;-39
2024/01/19 07:31:43;;;;;;;8.98;6.25;;;;;;;-2.60;100.00;101882.31;5097625;28;20020;-39
2024/01/19 07:34:08;;;;;;;11.80;6.27;;;;;;;-2.60;100.00;101879.66;5097010;28;20028;-39
2024/01/19 07:36:34;;;;;;;10.47;6.83;;;;;;;-2.62;100.00;101892.19;5097126;28;20282;-39
2024/01/19 07:38:59;;;;;;;7.88;5.63;;;;;;;-2.63;100.00;101890.53;5096806;28;20483;-39
2024/01/19 07:41:25;;;;;;;10.70;6.17;;;;;;;-2.62;100.00;101887.75;5097697;28;20036;-39
2024/01/19 07:43:50;;;;;;;9.63;6.18;;;;;;;-2.66;100.00;101896.03;5096787;28;20399;-39
2024/01/19 07:46:16;;;;;;;12.07;6.43;;;;;;;-2.67;100.00;101891.72;5097391;28;20040;-38
2024/01/19 07:48:42;;;;;;;9.37;6.27;;;;;;;-2.74;100.00;101893.97;5096440;28;20031;-38
2024/01/19 07:51:07;;;;;;;12.20;7.63;;;;;;;-2.75;100.00;101891.47;5096948;28;20020;-38
2024/01/19 07:53:32;;;;;;;12.40;8.47;;;;;;;-2.67;100.00;101904.97;5096924;28;20027;-38
2024/01/19 07:55:58;;;;;;;11.17;8.33;;;;;;;-2.68;100.00;101908.56;5096665;28;20118;-39
2024/01/19 07:58:24;;;;;;;14.27;10.18;;;;;;;-2.69;100.00;101912.16;5096467;28;20364;-39
2024/01/19 08:00:50;;;;;;;18.67;13.85;;;;;;;-2.69;100.00;101918.28;5096283;28;20046;-39
2024/01/19 08:03:17;;;;;;;14.00;11.07;;;;;;;-2.71;100.00;101924.69;5096511;28;20032;-39
2024/01/19 08:05:43;;;;;;;16.92;11.57;;;;;;;-2.69;100.00;101918.28;5096614;28;20063;-39
2024/01/19 08:08:08;;;;;;;14.30;10.38;;;;;;;-2.66;100.00;101919.88;5096517;28;20134;-39
2024/01/19 08:10:35;;;;;;;11.77;8.87;;;;;;;-2.62;100.00;101926.63;5096430;28;20024;-39
2024/01/19 08:13:01;;;;;;;11.98;8.18;;;;;;;-2.63;100.00;101928.44;5096826;28;20368;-39
2024/01/19 08:15:26;;;;;;;11.68;8.80;;;;;;;-2.60;100.00;101932.63;5096401;28;20111;-38
2024/01/19 08:17:51;;;;;;;14.23;9.83;;;;;;;-2.53;100.00;101944.44;5096174;28;20426;-39
2024/01/19 08:20:17;;;;;;;16.23;9.93;;;;;;;-2.50;100.00;101943.34;5096101;28;20028;-39
2024/01/19 08:22:42;;;;;;;11.20;10.00;;;;;;;-2.51;100.00;101925.78;5096652;28;20257;-39
2024/01/19 08:25:09;;;;;;;13.88;8.98;;;;;;;-2.45;100.00;101930.59;5096012;28;20043;-39
2024/01/19 08:27:35;;;;;;;13.50;8.50;;;;;;;-2.37;100.00;101952.03;5095783;28;20028;-38
2024/01/19 08:30:00;;;;;;;10.13;8.10;;;;;;;-2.34;100.00;101954.47;5095899;28;20034;-38
2024/01/19 08:32:26;;;;;;;12.97;9.63;;;;;;;-2.44;100.00;101933.16;5096379;28;20128;-38
2024/01/19 08:34:51;;;;;;;13.82;8.55;;;;;;;-2.26;100.00;101961.78;5096216;28;20111;-38
2024/01/19 08:37:17;;;;;;;14.40;9.18;;;;;;;-2.24;100.00;101965.19;5095977;28;20400;-39
2024/01/19 08:39:44;;;;;;;16.73;8.93;;;;;;;-2.26;100.00;101946.75;5095351;28;20035;-38
2024/01/19 08:42:10;;;;;;;12.70;9.85;;;;;;;-2.18;100.00;101964.69;5095963;28;20361;-38
2024/01/19 08:44:35;;;;;;;12.50;9.13;;;;;;;-2.23;100.00;101957.09;5095379;28;20035;-38
2024/01/19 08:47:00;;;;;;;12.83;9.83;;;;;;;-2.11;100.00;101966.72;5095670;28;20021;-38
2024/01/19 08:49:26;;;;;;;10.10;7.93;;;;;;;-2.07;100.00;101970.00;5095348;28;20464;-38
2024/01/19 08:51:51;;;;;;;13.03;7.70;;;;;;;-2.03;100.00;101975.91;5095223;28;20036;-38
2024/01/19 08:54:17;;;;;;;12.60;8.47;;;;;;;-1.95;100.00;101978.75;5095388;28;20071;-38
2024/01/19 08:56:43;;;;;;;;;;;;;;;-1.87;100.00;101985.16;5096895;28;20043;-39
2024/01/19 08:59:08;;;;;;;10.00;8.07;;;;;;;-1.87;100.00;101982.50;5095328;28;19916;-39
2024/01/19 09:01:34;;;;;;;13.68;9.00;;;;;;;-1.83;100.00;101991.91;5095030;28;20258;-39
2024/01/19 09:03:59;;;;;;;12.18;8.38;;;;;;;-1.68;100.00;101996.94;5095214;28;20063;-39
2024/01/19 09:06:25;;;;;;;10.85;8.70;;;;;;;-1.65;100.00;101999.38;5095789;28;20114;-39
2024/01/19 09:08:50;;;;;;;9.53;7.90;;;;;;;-1.65;100.00;101988.75;5095928;28;20445;-39
2024/01/19 09:11:15;;;;;;;10.17;7.70;;;;;;;-1.57;100.00;101994.25;5095726;28;20085;-39
2024/01/19 09:13:41;;;;;;;10.70;7.43;;;;;;;-1.46;100.00;102006.69;5095389;28;20055;-39
2024/01/19 09:16:10;;;;;;;8.27;6.37;;;;;;;-1.37;100.00;102005.91;5095340;28;20030;-39
2024/01/19 09:18:37;;;;;;;8.43;6.43;;;;;;;-1.34;100.00;102014.47;5094714;28;20498;-39
2024/01/19 09:21:03;;;;;;;9.02;6.57;;;;;;;-1.30;100.00;102015.91;5094721;28;20028;-39
2024/01/19 09:23:29;;;;;;;8.77;6.07;;;;;;;-1.25;100.00;102009.41;5094879;28;20031;-39
2024/01/19 09:25:54;;;;;;;8.98;6.47;;;;;;;-1.15;100.00;102021.78;5094909;28;20464;-39
2024/01/19 09:28:19;;;;;;;11.07;6.30;;;;;;;-1.07;100.00;102027.31;5095068;28;20025;-39
2024/01/19 09:30:47;;;;;;;11.37;5.63;;;;;;;-1.06;100.00;102017.53;5095320;28;20372;-39
2024/01/19 09:33:13;;;;;;;9.48;5.90;;;;;;;-0.95;100.00;102033.41;5095245;28;20038;-39
2024/01/19 09:35:38;;;;;;;7.88;5.82;;;;;;;-0.95;100.00;102019.28;5094542;28;20399;-39
2024/01/19 09:38:04;;;;;;;10.33;6.07;;;;;;;-0.81;100.00;102035.78;5094970;28;20047;-39
2024/01/19 09:40:29;;;;;;;7.43;5.47;;;;;;;-0.81;100.00;102025.13;5093260;28;20031;-39
2024/01/19 09:42:55;;;;;;;10.33;5.80;;;;;;;-0.69;100.00;102039.19;5095402;28;20032;-39
2024/01/19 09:45:25;;;;;;;7.35;5.10;;;;;;;-0.60;100.00;102045.56;5094714;28;20380;-39
2024/01/19 09:48:22;;;;;;;8.70;5.22;;;;;;;-0.59;100.00;102032.13;5094712;28;20384;-39
2024/01/19 09:50:51;;;;;;;7.20;4.80;;;;;;;-0.48;100.00;102044.53;5094948;28;20028;-39
2024/01/19 09:53:34;;;;;;;5.53;4.80;;;;;;;-0.40;100.00;102055.34;5094367;28;20035;-39
2024/01/19 09:56:00;;;;;;;7.07;4.45;;;;;;;-0.41;100.00;102052.84;5094027;28;20051;-39
2024/01/19 09:58:26;;;;;;;10.35;5.82;;;;;;;-0.31;100.00;102067.88;5094331;28;20036;-39
2024/01/19 10:00:52;;;;;;;6.35;4.68;;;;;;;-0.29;100.00;102078.38;5094104;28;20131;-39
2024/01/19 10:03:18;;;;;;;9.57;5.25;;;;;;;-0.22;100.00;102081.34;5094484;28;20039;-39
2024/01/19 10:05:44;;;;;;;7.93;4.68;;;;;;;-0.17;100.00;102077.31;5094389;28;20471;-39
2024/01/19 10:08:12;;;;;;;6.68;4.78;;;;;;;-0.17;100.00;102087.13;5093818;28;20054;-39
2024/01/19 10:10:41;;;;;;;5.88;3.80;;;;;;;-0.16;100.00;102088.81;5094586;28;20055;-39
2024/01/19 10:13:07;;;;;;;5.07;4.20;;;;;;;-0.12;100.00;102095.56;5093992;28;20064;-39
2024/01/19 10:15:33;;;;;;;6.85;4.30;;;;;;;-0.09;100.00;102097.97;5094137;28;20051;-39
2024/01/19 10:18:00;;;;;;;5.78;4.50;;;;;;;0.00;100.00;102091.84;5094420;28;20085;-39
2024/01/19 10:20:26;;;;;;;7.30;4.63;;;;;;;0.04;100.00;102082.63;5093818;28;20024;-39
2024/01/19 10:22:51;;;;;;;5.28;4.15;;;;;;;0.12;100.00;102081.97;5093957;28;20058;-39
2024/01/19 10:25:18;;;;;;;5.63;4.20;;;;;;;0.16;100.00;102091.38;5093753;28;20099;-39
2024/01/19 10:27:45;;;;;;;5.60;4.20;;;;;;;0.15;100.00;102077.22;5093429;28;20034;-39
2024/01/19 10:30:20;;;;;;;6.80;4.60;;;;;;;0.26;100.00;102086.94;5094495;28;20334;-39
2024/01/19 10:32:46;;;;;;;6.25;4.38;;;;;;;0.34;100.00;102089.78;5094165;28;20085;-39
2024/01/19 10:35:30;;;;;;;9.13;4.35;;;;;;;0.40;100.00;102101.72;5093861;28;20057;-39
2024/01/19 10:38:06;;;;;;;6.32;4.18;;;;;;;0.40;100.00;102089.25;5093685;28;20035;-39
2024/01/19 10:40:33;;;;;;;6.55;3.90;;;;;;;0.53;100.00;102096.97;5093871;28;20023;-39
2024/01/19 10:42:59;;;;;;;7.50;4.25;;;;;;;0.52;100.00;102082.00;5093808;28;20035;-39
2024/01/19 10:45:29;;;;;;;8.20;4.70;;;;;;;0.63;100.00;102097.84;5093276;28;20020;-39
2024/01/19 10:47:57;;;;;;;5.70;4.18;;;;;;;0.64;100.00;102088.06;5093515;28;20082;-39
2024/01/19 10:50:28;;;;;;;6.95;4.32;;;;;;;0.74;100.00;102102.25;5093265;28;20024;-39
2024/01/19 10:52:55;;;;;;;9.38;4.80;;;;;;;0.79;100.00;102105.34;5093455;28;20081;-39
2024/01/19 10:55:22;;;;;;;7.15;4.60;;;;;;;0.85;100.00;102103.94;5093385;28;20431;-39
2024/01/19 10:57:51;;;;;;;5.55;3.97;;;;;;;0.89;100.00;102110.69;5093419;28;20038;-39
2024/01/19 11:00:22;;;;;;;9.57;5.18;;;;;;;0.89;100.00;102108.03;5093318;28;20030;-39
2024/01/19 11:02:52;;;;;;;5.65;3.95;;;;;;;0.88;100.00;102099.19;5093674;28;20168;-39
2024/01/19 11:05:19;;;;;;;9.90;4.38;;;;;;;0.93;100.00;102093.47;5093375;28;20132;-39
2024/01/19 11:07:49;;;;;;;7.57;4.88;;;;;;;0.99;100.00;102103.56;5093389;28;20028;-39
2024/01/19 11:10:14;;;;;;;5.00;3.95;;;;;;;0.95;100.00;102089.66;5093254;28;20138;-39
2024/01/19 11:12:47;;;;;;;6.03;4.10;;;;;;;1.10;100.00;102097.25;5093273;28;20028;-39